createdAt,value
2018-04-10T00:00:17.574Z,13.70
2018-04-10T00:02:45.979Z,13.70
2018-04-10T00:05:15.236Z,13.70
2018-04-10T00:07:43.648Z,13.60
2018-04-10T00:10:12.041Z,13.60
2018-04-10T00:12:41.218Z,13.50
2018-04-10T00:15:09.625Z,13.50
2018-04-10T00:17:38.012Z,13.50
2018-04-10T00:20:06.412Z,13.40
2018-04-10T00:22:34.812Z,13.40
2018-04-10T00:25:03.212Z,13.40
2018-04-10T00:27:31.607Z,13.40
2018-04-10T00:30:00.773Z,13.40
2018-04-10T00:32:29.165Z,13.30
2018-04-10T00:34:57.573Z,13.30
2018-04-10T00:37:25.971Z,13.30
2018-04-10T00:39:54.373Z,13.30
2018-04-10T00:42:22.768Z,13.30
2018-04-10T00:44:51.193Z,13.40
2018-04-10T00:47:19.584Z,13.30
2018-04-10T00:49:49.135Z,13.30
2018-04-10T00:52:17.516Z,13.30
2018-04-10T00:54:46.733Z,13.30
2018-04-10T00:57:15.892Z,13.30
2018-04-10T00:59:44.285Z,13.30
2018-04-10T01:04:42.942Z,13.20
2018-04-10T01:07:11.342Z,13.20
2018-04-10T01:09:40.873Z,13.10
2018-04-10T01:12:09.274Z,13.00
2018-04-10T01:14:38.431Z,13.10
2018-04-10T01:17:06.831Z,13.00
2018-04-10T01:19:35.222Z,13.00
2018-04-10T01:22:04.394Z,12.90
2018-04-10T01:24:32.780Z,12.90
2018-04-10T01:27:01.194Z,12.90
2018-04-10T01:29:29.591Z,12.80
2018-04-10T01:31:57.990Z,12.80
2018-04-10T01:34:26.397Z,12.80
2018-04-10T01:36:54.798Z,12.70
2018-04-10T01:39:23.961Z,12.70
2018-04-10T01:41:52.376Z,12.60
2018-04-10T01:44:21.560Z,12.60
2018-04-10T01:46:50.741Z,12.60
2018-04-10T01:49:19.124Z,12.50
2018-04-10T01:51:47.523Z,12.50
2018-04-10T01:54:16.699Z,12.50
2018-04-10T01:56:45.103Z,12.50
2018-04-10T01:59:14.262Z,12.40
2018-04-10T02:01:42.646Z,12.40
2018-04-10T02:04:11.058Z,12.30
2018-04-10T02:06:40.205Z,12.10
2018-04-10T02:09:08.617Z,12.10
2018-04-10T02:11:37.774Z,11.90
2018-04-10T02:14:06.168Z,11.90
2018-04-10T02:16:34.326Z,12.00
2018-04-10T02:19:02.742Z,12.10
2018-04-10T02:21:31.897Z,12.00
2018-04-10T02:24:00.310Z,12.00
2018-04-10T02:26:29.472Z,12.10
2018-04-10T02:28:57.876Z,12.10
2018-04-10T02:31:26.275Z,12.10
2018-04-10T02:33:55.441Z,12.10
2018-04-10T02:36:23.829Z,12.10
2018-04-10T02:38:52.273Z,12.10
2018-04-10T02:41:20.665Z,12.10
2018-04-10T02:43:49.053Z,12.00
2018-04-10T02:46:17.466Z,11.90
2018-04-10T02:48:46.050Z,12.00
2018-04-10T02:51:15.223Z,12.20
2018-04-10T02:53:43.605Z,12.10
2018-04-10T02:56:12.436Z,12.10
2018-04-10T02:58:40.833Z,12.10
2018-04-10T03:01:09.233Z,12.10
2018-04-10T03:03:37.654Z,12.00
2018-04-10T03:06:06.810Z,12.00
2018-04-10T03:08:35.204Z,12.00
2018-04-10T03:11:03.608Z,12.00
2018-04-10T03:13:32.782Z,12.00
2018-04-10T03:16:01.197Z,12.00
2018-04-10T03:18:29.582Z,12.00
2018-04-10T03:20:57.998Z,12.00
2018-04-10T03:23:26.388Z,12.00
2018-04-10T03:25:54.773Z,12.00
2018-04-10T03:28:23.176Z,12.00
2018-04-10T03:30:52.331Z,12.00
2018-04-10T03:33:20.732Z,12.00
2018-04-10T03:35:49.124Z,12.00
2018-04-10T03:38:18.309Z,11.90
2018-04-10T03:40:46.705Z,11.90
2018-04-10T03:43:15.873Z,12.00
2018-04-10T03:45:44.276Z,11.90
2018-04-10T03:48:13.451Z,12.10
2018-04-10T03:50:42.059Z,12.10
2018-04-10T03:53:11.248Z,12.20
2018-04-10T03:55:40.453Z,12.20
2018-04-10T03:58:09.008Z,12.20
2018-04-10T04:00:37.393Z,12.20
2018-04-10T04:03:05.795Z,12.20
2018-04-10T04:05:34.961Z,12.30
2018-04-10T04:08:03.369Z,12.30
2018-04-10T04:10:32.286Z,12.30
2018-04-10T04:13:00.704Z,12.30
2018-04-10T04:15:29.097Z,12.30
2018-04-10T04:17:57.493Z,12.30
2018-04-10T04:20:37.877Z,12.30
2018-04-10T04:23:06.521Z,12.30
2018-04-10T04:25:34.920Z,12.30
2018-04-10T04:28:03.750Z,12.20
2018-04-10T04:30:32.156Z,12.20
2018-04-10T04:33:00.549Z,12.10
2018-04-10T04:35:29.728Z,12.10
2018-04-10T04:37:58.117Z,12.00
2018-04-10T04:40:26.517Z,11.90
2018-04-10T04:42:55.434Z,11.70
2018-04-10T04:45:23.837Z,11.70
2018-04-10T04:47:52.225Z,11.60
2018-04-10T04:50:20.626Z,11.70
2018-04-10T04:52:49.009Z,11.80
2018-04-10T04:55:18.178Z,11.90
2018-04-10T04:57:46.558Z,11.90
2018-04-10T05:00:14.964Z,11.90
2018-04-10T05:02:44.197Z,12.00
2018-04-10T05:05:12.461Z,12.00
2018-04-10T05:07:40.869Z,12.10
2018-04-10T05:10:09.267Z,12.20
2018-04-10T05:12:37.703Z,12.20
2018-04-10T05:15:06.089Z,12.30
2018-04-10T05:17:34.493Z,12.30
2018-04-10T05:20:02.901Z,12.30
2018-04-10T05:22:31.515Z,12.30
2018-04-10T05:24:59.961Z,12.30
2018-04-10T05:27:28.138Z,12.20
2018-04-10T05:29:56.553Z,12.30
2018-04-10T05:32:25.884Z,12.30
2018-04-10T05:34:54.281Z,12.30
2018-04-10T05:37:22.672Z,12.30
2018-04-10T05:39:51.854Z,12.40
2018-04-10T05:42:20.261Z,12.30
2018-04-10T05:44:49.434Z,12.40
2018-04-10T05:47:17.829Z,12.30
2018-04-10T05:49:46.987Z,12.50
2018-04-10T05:52:15.384Z,12.40
2018-04-10T05:54:43.787Z,12.50
2018-04-10T05:57:12.745Z,12.50
2018-04-10T05:59:41.144Z,12.50
2018-04-10T06:02:09.589Z,12.50
2018-04-10T06:04:37.997Z,12.50
2018-04-10T06:07:06.389Z,12.60
2018-04-10T06:09:35.562Z,12.60
2018-04-10T06:12:03.948Z,12.60
2018-04-10T06:14:32.145Z,12.60
2018-04-10T06:17:01.293Z,12.70
2018-04-10T06:19:29.691Z,12.70
2018-04-10T06:21:58.090Z,12.80
2018-04-10T06:24:26.503Z,12.80
2018-04-10T06:26:54.892Z,12.90
2018-04-10T06:29:23.425Z,13.00
2018-04-10T06:31:51.820Z,13.00
2018-04-10T06:34:21.252Z,13.10
2018-04-10T06:36:49.636Z,13.10
2018-04-10T06:39:18.019Z,13.20
2018-04-10T06:41:46.427Z,13.20
2018-04-10T06:44:14.820Z,13.30
2018-04-10T06:46:43.229Z,13.30
2018-04-10T06:49:12.749Z,13.40
2018-04-10T06:51:41.156Z,13.40
2018-04-10T06:56:40.102Z,13.50
2018-04-10T07:06:45.425Z,13.50
2018-04-10T07:09:14.613Z,13.40
2018-04-10T07:11:43.035Z,13.40
2018-04-10T07:14:11.417Z,13.40
2018-04-10T07:16:39.822Z,13.40
2018-04-10T07:19:08.980Z,13.40
2018-04-10T07:21:37.373Z,13.40
2018-04-10T07:24:05.754Z,13.30
2018-04-10T07:26:34.153Z,13.30
2018-04-10T07:29:03.304Z,13.30
2018-04-10T07:31:31.466Z,13.30
2018-04-10T07:33:59.882Z,13.30
2018-04-10T07:36:28.473Z,13.30
2018-04-10T07:38:56.864Z,13.30
2018-04-10T07:41:26.026Z,13.20
2018-04-10T07:43:54.472Z,13.20
2018-04-10T07:46:22.924Z,13.20
2018-04-10T07:48:52.139Z,13.20
2018-04-10T07:51:20.336Z,13.20
2018-04-10T07:53:49.654Z,13.20
2018-04-10T07:56:18.109Z,13.20
2018-04-10T07:58:46.497Z,13.30
2018-04-10T08:01:14.914Z,13.30
2018-04-10T08:03:43.311Z,13.30
2018-04-10T08:06:12.468Z,13.20
2018-04-10T08:08:41.075Z,13.20
2018-04-10T08:11:09.456Z,13.20
2018-04-10T08:13:38.625Z,13.00
2018-04-10T08:16:07.037Z,13.00
2018-04-10T08:18:35.469Z,13.10
2018-04-10T08:21:03.853Z,13.20
2018-04-10T08:23:32.253Z,13.10
2018-04-10T08:26:00.652Z,13.10
2018-04-10T08:28:29.886Z,13.30
2018-04-10T08:30:58.283Z,13.30
2018-04-10T08:33:26.685Z,13.20
2018-04-10T08:35:55.369Z,13.10
2018-04-10T08:38:23.758Z,13.00
2018-04-10T08:40:52.162Z,13.00
2018-04-10T08:43:20.336Z,13.00
2018-04-10T08:45:49.584Z,12.90
2018-04-10T08:48:18.065Z,13.00
2018-04-10T08:50:46.125Z,13.10
2018-04-10T08:53:14.533Z,13.40
2018-04-10T08:55:42.955Z,13.50
2018-04-10T08:58:11.347Z,13.70
2018-04-10T09:00:39.749Z,14.00
2018-04-10T09:03:08.141Z,14.00
2018-04-10T09:05:36.525Z,14.00
2018-04-10T09:08:04.921Z,14.30
2018-04-10T09:10:34.090Z,14.10
2018-04-10T09:13:02.493Z,14.10
2018-04-10T09:15:31.651Z,14.40
2018-04-10T09:18:00.147Z,14.40
2018-04-10T09:23:01.780Z,14.70
2018-04-10T09:25:30.176Z,14.70
2018-04-10T09:27:58.637Z,14.80
2018-04-10T09:30:27.022Z,14.70
2018-04-10T09:32:55.472Z,14.80
2018-04-10T09:35:24.398Z,15.10
2018-04-10T09:37:52.837Z,15.00
2018-04-10T09:40:22.002Z,14.90
2018-04-10T09:42:50.392Z,14.90
2018-04-10T09:45:18.890Z,15.00
2018-04-10T09:47:48.053Z,15.10
2018-04-10T09:50:16.129Z,15.20
2018-04-10T09:52:44.715Z,15.20
2018-04-10T09:55:13.098Z,15.50
2018-04-10T09:57:41.499Z,15.60
2018-04-10T10:00:10.421Z,16.20
2018-04-10T10:02:38.883Z,16.20
2018-04-10T10:05:07.285Z,16.50
2018-04-10T10:07:35.665Z,16.60
2018-04-10T10:10:03.752Z,16.80
2018-04-10T10:12:32.169Z,16.60
2018-04-10T10:15:01.117Z,16.40
2018-04-10T10:17:29.519Z,16.40
2018-04-10T10:19:59.027Z,16.30
2018-04-10T10:22:27.599Z,16.30
2018-04-10T10:24:56.387Z,16.30
2018-04-10T10:27:24.865Z,16.20
2018-04-10T10:29:53.273Z,16.30
2018-04-10T10:32:22.436Z,17.10
2018-04-10T10:34:50.890Z,17.10
2018-04-10T10:37:19.296Z,17.60
2018-04-10T10:39:47.679Z,18.30
2018-04-10T10:42:16.813Z,19.30
2018-04-10T10:44:45.993Z,19.80
2018-04-10T10:47:14.644Z,19.80
2018-04-10T10:49:43.141Z,19.80
2018-04-10T10:52:11.541Z,20.20
2018-04-10T10:54:40.745Z,19.30
2018-04-10T10:57:09.916Z,18.60
2018-04-10T10:59:38.356Z,18.60
2018-04-10T11:02:06.764Z,19.00
2018-04-10T11:04:35.209Z,19.10
2018-04-10T11:07:03.661Z,18.80
2018-04-10T11:09:32.063Z,19.40
2018-04-10T11:12:01.401Z,19.30
2018-04-10T11:14:29.807Z,19.30
2018-04-10T11:16:58.400Z,19.00
2018-04-10T11:19:27.557Z,19.30
2018-04-10T11:21:56.001Z,19.30
2018-04-10T11:24:24.469Z,19.80
2018-04-10T11:26:52.898Z,19.20
2018-04-10T11:29:21.298Z,19.30
2018-04-10T11:31:49.697Z,19.10
2018-04-10T11:34:18.863Z,19.20
2018-04-10T11:36:47.254Z,19.10
2018-04-10T11:39:15.658Z,19.30
2018-04-10T11:41:44.066Z,19.10
2018-04-10T11:44:12.471Z,19.60
2018-04-10T11:46:40.876Z,19.70
2018-04-10T11:49:10.034Z,20.40
2018-04-10T11:51:38.451Z,20.40
2018-04-10T11:54:07.644Z,20.00
2018-04-10T11:56:36.051Z,20.00
2018-04-10T11:59:04.459Z,20.20
2018-04-10T12:01:32.851Z,19.60
2018-04-10T12:04:01.335Z,19.40
2018-04-10T12:06:30.499Z,19.10
2018-04-10T12:08:58.901Z,19.10
2018-04-10T12:11:27.325Z,19.20
2018-04-10T12:13:57.689Z,19.50
2018-04-10T12:16:26.086Z,19.50
2018-04-10T12:18:54.925Z,19.90
2018-04-10T12:21:24.098Z,19.70
2018-04-10T12:23:53.256Z,19.60
2018-04-10T12:26:21.654Z,19.60
2018-04-10T12:28:50.053Z,19.20
2018-04-10T12:31:18.461Z,19.40
2018-04-10T12:33:46.849Z,19.70
2018-04-10T12:36:15.243Z,20.30
2018-04-10T12:38:43.628Z,20.00
2018-04-10T12:41:12.029Z,19.60
2018-04-10T12:43:40.401Z,19.40
2018-04-10T12:46:08.823Z,19.40
2018-04-10T12:48:37.997Z,19.70
2018-04-10T12:51:06.047Z,19.70
2018-04-10T12:53:34.442Z,19.70
2018-04-10T12:56:02.874Z,19.60
2018-04-10T12:58:31.408Z,19.60
2018-04-10T13:01:00.597Z,18.60
2018-04-10T13:03:29.067Z,18.60
2018-04-10T13:05:57.465Z,18.30
2018-04-10T13:08:26.694Z,18.40
2018-04-10T13:10:55.184Z,18.30
2018-04-10T13:13:23.578Z,18.30
2018-04-10T13:15:51.748Z,18.00
2018-04-10T13:18:20.126Z,17.70
2018-04-10T13:58:13.897Z,18.40
2018-04-10T14:00:43.047Z,18.40
2018-04-10T14:03:11.450Z,18.40
2018-04-10T14:05:39.850Z,18.00
2018-04-10T14:08:08.796Z,18.50
2018-04-10T14:10:36.960Z,18.50
2018-04-10T14:13:05.341Z,18.50
2018-04-10T14:15:33.792Z,18.40
2018-04-10T14:18:02.207Z,17.90
2018-04-10T14:20:30.790Z,17.80
2018-04-10T14:22:59.191Z,17.80
2018-04-10T14:25:27.392Z,17.70
2018-04-10T14:27:56.418Z,17.80
2018-04-10T14:30:24.739Z,17.80
2018-04-10T14:32:53.156Z,17.70
2018-04-10T14:35:21.306Z,17.80
2018-04-10T14:37:50.486Z,17.70
2018-04-10T14:40:18.637Z,17.70
2018-04-10T14:42:47.034Z,17.70
2018-04-10T14:45:15.428Z,17.90
2018-04-10T14:47:44.585Z,17.90
2018-04-10T14:50:12.975Z,17.90
2018-04-10T14:52:40.824Z,18.00
2018-04-10T14:55:08.981Z,18.00
2018-04-10T14:57:37.151Z,17.80
2018-04-10T15:00:04.880Z,17.70
2018-04-10T15:02:33.316Z,17.70
2018-04-10T15:05:02.190Z,17.90
2018-04-10T15:07:30.573Z,18.00
2018-04-10T15:09:58.973Z,18.30
2018-04-10T15:12:27.357Z,18.40
2018-04-10T15:14:55.756Z,18.10
2018-04-10T15:17:24.916Z,18.10
2018-04-10T15:19:53.374Z,18.10
2018-04-10T15:22:21.754Z,17.90
2018-04-10T15:24:50.141Z,17.90
2018-04-10T15:27:19.892Z,18.00
2018-04-10T15:29:48.327Z,18.00
2018-04-10T15:32:16.719Z,18.00
2018-04-10T15:34:45.102Z,18.00
2018-04-10T15:37:13.533Z,17.90
2018-04-10T15:39:41.914Z,18.00
2018-04-10T15:42:10.078Z,17.80
2018-04-10T15:44:38.479Z,17.90
2018-04-10T15:47:06.931Z,17.90
2018-04-10T15:49:36.086Z,17.70
2018-04-10T15:52:04.156Z,17.70
2018-04-10T15:54:32.546Z,17.70
2018-04-10T15:57:00.924Z,17.90
2018-04-10T15:59:29.324Z,18.10
2018-04-10T16:01:58.137Z,17.70
2018-04-10T16:04:26.548Z,17.70
2018-04-10T16:06:55.014Z,17.90
2018-04-10T16:09:23.439Z,17.80
2018-04-10T16:11:51.841Z,17.80
2018-04-10T16:14:20.850Z,17.80
2018-04-10T16:16:49.231Z,17.80
2018-04-10T16:19:16.950Z,17.90
2018-04-10T16:21:45.359Z,18.10
2018-04-10T16:29:28.004Z,18.40
2018-04-10T16:31:57.147Z,18.50
2018-04-10T16:34:25.550Z,18.50
2018-04-10T16:36:53.937Z,18.30
2018-04-10T16:39:23.105Z,18.40
2018-04-10T16:41:51.502Z,18.40
2018-04-10T16:44:19.896Z,18.40
2018-04-10T16:46:49.060Z,18.20
2018-04-10T16:49:17.457Z,18.20
2018-04-10T16:51:45.854Z,17.80
2018-04-10T16:54:15.034Z,17.50
2018-04-10T16:59:14.778Z,17.10
2018-04-10T17:01:43.929Z,17.10
2018-04-10T17:04:12.330Z,17.00
2018-04-10T17:06:41.618Z,16.90
2018-04-10T17:09:10.079Z,16.90
2018-04-10T17:11:38.449Z,16.80
2018-04-10T17:14:07.167Z,16.60
2018-04-10T17:16:36.302Z,16.40
2018-04-10T17:19:04.687Z,16.20
2018-04-10T17:21:32.841Z,16.20
2018-04-10T17:24:01.768Z,16.20
2018-04-10T17:26:29.949Z,16.20
2018-04-10T17:31:28.458Z,15.80
2018-04-10T17:33:56.612Z,15.70
2018-04-10T17:36:24.994Z,15.80
2018-04-10T17:38:53.395Z,15.80
2018-04-10T17:41:23.117Z,15.70
2018-04-10T17:43:51.296Z,15.70
2018-04-10T17:46:19.473Z,15.60
2018-04-10T17:48:48.041Z,15.70
2018-04-10T17:51:16.459Z,15.70
2018-04-10T17:53:44.609Z,15.80
2018-04-10T17:56:13.780Z,15.80
2018-04-10T17:58:42.165Z,15.80
2018-04-10T18:01:10.573Z,15.70
2018-04-10T18:03:39.747Z,15.50
2018-04-10T18:06:08.369Z,15.50
2018-04-10T18:08:36.758Z,15.40
2018-04-10T18:11:05.148Z,15.40
2018-04-10T18:13:33.531Z,15.30
2018-04-10T18:16:02.172Z,15.30
2018-04-10T18:18:30.669Z,15.20
2018-04-10T18:21:00.062Z,15.20
2018-04-10T18:23:28.475Z,15.20
2018-04-10T18:25:56.858Z,15.10
2018-04-10T18:28:25.263Z,15.10
2018-04-10T18:30:53.772Z,15.00
2018-04-10T18:33:22.925Z,15.00
2018-04-10T18:35:51.334Z,14.90
2018-04-10T18:38:20.549Z,14.80
2018-04-10T18:40:49.779Z,14.70
2018-04-10T18:43:18.255Z,14.70
2018-04-10T19:15:47.582Z,12.80
2018-04-10T19:18:17.361Z,12.80
2018-04-10T19:20:47.207Z,13.00
2018-04-10T19:23:15.838Z,12.80
2018-04-10T19:25:45.513Z,12.80
2018-04-10T19:28:13.913Z,12.90
2018-04-10T20:57:24.769Z,10.90
2018-04-10T23:10:12.053Z,11.00
2018-04-10T23:15:15.438Z,10.90
2018-04-10T23:17:46.547Z,11.00
2018-04-10T23:25:18.721Z,11.00
2018-04-10T23:27:49.311Z,11.00
2018-04-10T23:32:55.017Z,10.90
